Time;durP1;ratioP1;P1;durP2;ratioP2;P2;SDS_P1;SDS_P2;PMS_P1;PMS_P2;Temp;Humidity;BMP_temperature;BMP_pressure;BME280_temperature;BME280_humidity;BME280_pressure;Samples;Min_cycle;Max_cycle;Signal;HPM_P1;HPM_P2
2022/10/27 00:01:26;;;;;;;9.33;7.00;;;;;;;;;;5074460;28;20479;-79
2022/10/27 00:03:53;;;;;;;8.33;6.80;;;;;;;;;;5074477;28;20944;-78
2022/10/27 00:06:21;;;;;;;10.63;7.53;;;;;;;;;;5074684;28;20444;-77
2022/10/27 00:08:50;;;;;;;12.50;7.60;;;;;;;;;;5074685;28;20447;-77
2022/10/27 00:11:18;;;;;;;9.50;6.67;;;;;;;;;;5074769;28;20553;-77
2022/10/27 00:13:46;;;;;;;10.43;6.93;;;;;;;;;;5055687;28;20449;-76
2022/10/27 00:16:14;;;;;;;21.53;7.60;;;;;;;;;;5054667;28;20491;-77
2022/10/27 00:18:41;;;;;;;9.60;7.07;;;;;;;;;;5055076;28;20477;-78
2022/10/27 00:21:09;;;;;;;10.63;7.87;;;;;;;;;;5078299;28;20455;-76
2022/10/27 00:23:37;;;;;;;11.50;7.87;;;;;;;;;;5077930;28;20448;-77
2022/10/27 00:26:05;;;;;;;13.17;7.47;;;;;;;;;;5073958;28;20509;-77
2022/10/27 00:28:34;;;;;;;11.27;8.23;;;;;;;;;;5053830;28;20452;-76
2022/10/27 00:31:01;;;;;;;14.33;7.80;;;;;;;;;;5054596;28;20452;-77
2022/10/27 00:33:29;;;;;;;10.07;7.60;;;;;;;;;;5053494;28;20449;-78
2022/10/27 00:35:56;;;;;;;15.07;7.60;;;;;;;;;;5053856;28;20481;-78
2022/10/27 00:38:23;;;;;;;12.03;8.60;;;;;;;;;;5054786;28;20453;-78
2022/10/27 00:40:50;;;;;;;9.57;7.27;;;;;;;;;;5057068;28;20445;-79
2022/10/27 00:43:24;;;;;;;14.07;7.53;;;;;;;;;;5071690;28;20475;-77
2022/10/27 00:45:53;;;;;;;16.17;7.90;;;;;;;;;;5072688;28;20437;-76
2022/10/27 00:48:20;;;;;;;9.30;7.97;;;;;;;;;;5074072;28;20506;-78
2022/10/27 00:50:47;;;;;;;10.30;8.97;;;;;;;;;;5073766;28;20444;-79
2022/10/27 00:53:14;;;;;;;13.63;8.20;;;;;;;;;;5072802;28;20445;-77
2022/10/27 00:55:41;;;;;;;14.50;8.10;;;;;;;;;;5070789;28;20487;-77
2022/10/27 00:58:10;;;;;;;12.43;8.33;;;;;;;;;;5069772;28;20940;-77
2022/10/27 01:00:39;;;;;;;13.63;7.30;;;;;;;;;;5073455;28;20452;-79
2022/10/27 01:03:08;;;;;;;8.87;7.23;;;;;;;;;;5072705;28;20472;-77
2022/10/27 01:05:35;;;;;;;16.17;8.50;;;;;;;;;;5072655;28;20445;-77
2022/10/27 01:08:03;;;;;;;8.87;8.07;;;;;;;;;;5073132;28;20436;-78
2022/10/27 01:10:31;;;;;;;9.07;7.53;;;;;;;;;;5072532;28;20456;-77
2022/10/27 01:12:58;;;;;;;15.17;8.50;;;;;;;;;;5072247;28;20465;-77
2022/10/27 01:15:31;;;;;;;10.33;8.27;;;;;;;;;;5072889;28;20473;-77
2022/10/27 01:18:02;;;;;;;9.30;7.73;;;;;;;;;;5073207;28;21047;-76
2022/10/27 01:21:01;;;;;;;10.50;7.60;;;;;;;;;;5072810;28;20519;-77
2022/10/27 01:23:34;;;;;;;10.73;8.20;;;;;;;;;;5071806;28;20469;-79
2022/10/27 01:26:15;;;;;;;10.97;8.30;;;;;;;;;;5072587;28;20422;-77
2022/10/27 01:28:58;;;;;;;12.00;9.20;;;;;;;;;;5073129;28;20429;-77
2022/10/27 01:31:28;;;;;;;14.33;8.47;;;;;;;;;;5072616;28;20464;-77
2022/10/27 01:33:59;;;;;;;11.03;8.63;;;;;;;;;;5071595;28;20864;-79
2022/10/27 01:36:31;;;;;;;10.20;8.20;;;;;;;;;;5072287;28;20477;-78
2022/10/27 01:39:01;;;;;;;13.87;8.00;;;;;;;;;;5072553;28;21063;-78
2022/10/27 01:41:31;;;;;;;10.23;7.93;;;;;;;;;;5072479;28;20460;-77
2022/10/27 01:43:59;;;;;;;12.87;8.40;;;;;;;;;;5071044;28;20445;-77
2022/10/27 01:46:28;;;;;;;8.83;7.93;;;;;;;;;;5072471;28;20441;-77
2022/10/27 01:48:55;;;;;;;11.97;8.07;;;;;;;;;;5072534;28;20441;-78
2022/10/27 01:51:22;;;;;;;10.20;8.90;;;;;;;;;;5072006;28;20460;-77
2022/10/27 01:53:50;;;;;;;12.93;8.60;;;;;;;;;;5071437;28;20453;-77
2022/10/27 01:56:26;;;;;;;10.43;8.10;;;;;;;;;;5072764;28;20484;-77
2022/10/27 01:58:59;;;;;;;8.73;7.80;;;;;;;;;;5072461;28;20951;-77
2022/10/27 02:01:36;;;;;;;13.57;9.17;;;;;;;;;;5071914;28;20469;-76
2022/10/27 02:04:07;;;;;;;9.30;8.20;;;;;;;;;;5071314;28;20463;-77
2022/10/27 02:06:37;;;;;;;9.40;8.50;;;;;;;;;;5071520;28;20929;-77
2022/10/27 02:09:07;;;;;;;9.60;8.60;;;;;;;;;;5071286;28;20455;-79
2022/10/27 02:11:36;;;;;;;10.53;8.10;;;;;;;;;;5071446;28;20468;-77
2022/10/27 02:14:03;;;;;;;14.50;9.40;;;;;;;;;;5070596;28;20452;-77
2022/10/27 02:16:33;;;;;;;8.43;7.70;;;;;;;;;;5070783;28;20495;-77
2022/10/27 02:19:03;;;;;;;10.90;8.60;;;;;;;;;;5071194;28;20453;-78
2022/10/27 02:21:33;;;;;;;10.17;9.20;;;;;;;;;;5071174;28;20535;-76
2022/10/27 02:24:00;;;;;;;9.20;8.30;;;;;;;;;;5070907;28;20444;-78
2022/10/27 02:26:30;;;;;;;11.03;9.00;;;;;;;;;;5071147;28;21267;-77
2022/10/27 02:29:00;;;;;;;13.83;8.73;;;;;;;;;;5071097;28;20453;-76
2022/10/27 02:31:29;;;;;;;12.20;8.83;;;;;;;;;;5070879;28;20841;-78
2022/10/27 02:33:58;;;;;;;9.37;8.30;;;;;;;;;;5070653;28;20449;-77
2022/10/27 02:36:25;;;;;;;17.93;9.80;;;;;;;;;;5071475;28;20858;-77
2022/10/27 02:38:52;;;;;;;10.23;8.57;;;;;;;;;;5071395;28;20445;-78
2022/10/27 02:41:19;;;;;;;11.80;9.50;;;;;;;;;;5071437;28;20469;-77
2022/10/27 02:43:46;;;;;;;12.00;8.60;;;;;;;;;;5072056;28;20448;-77
2022/10/27 02:46:13;;;;;;;10.80;8.37;;;;;;;;;;5073621;28;21007;-77
2022/10/27 02:48:40;;;;;;;19.23;9.87;;;;;;;;;;5071187;28;20440;-76
2022/10/27 02:51:08;;;;;;;10.43;9.43;;;;;;;;;;5071130;28;20476;-76
2022/10/27 02:53:35;;;;;;;14.90;10.83;;;;;;;;;;5070482;28;20453;-77
2022/10/27 02:56:03;;;;;;;10.70;9.40;;;;;;;;;;5071255;28;20492;-77
2022/10/27 02:58:30;;;;;;;12.27;8.73;;;;;;;;;;5071775;28;20818;-77
2022/10/27 03:00:57;;;;;;;12.67;8.03;;;;;;;;;;5071013;28;20444;-77
2022/10/27 03:03:24;;;;;;;9.30;8.00;;;;;;;;;;5069879;28;20441;-76
2022/10/27 03:05:52;;;;;;;13.47;9.20;;;;;;;;;;5070252;28;20437;-77
2022/10/27 03:08:20;;;;;;;9.67;8.60;;;;;;;;;;5070597;28;20445;-77
2022/10/27 03:10:47;;;;;;;11.00;9.90;;;;;;;;;;5070885;28;20448;-76
2022/10/27 03:13:14;;;;;;;12.07;8.90;;;;;;;;;;5070362;28;20440;-77
2022/10/27 03:15:41;;;;;;;10.23;9.17;;;;;;;;;;5070901;28;20480;-77
2022/10/27 03:18:08;;;;;;;12.30;8.33;;;;;;;;;;5070459;28;20448;-75
2022/10/27 03:20:35;;;;;;;9.93;8.67;;;;;;;;;;5071540;28;20448;-78
2022/10/27 03:23:02;;;;;;;10.07;9.07;;;;;;;;;;5092655;28;20445;-77
2022/10/27 03:25:31;;;;;;;11.50;9.03;;;;;;;;;;5096097;28;20429;-75
2022/10/27 03:27:58;;;;;;;12.03;9.73;;;;;;;;;;5093690;28;20433;-77
2022/10/27 03:30:25;;;;;;;12.03;9.20;;;;;;;;;;5094921;28;20433;-77
2022/10/27 03:32:52;;;;;;;10.23;9.13;;;;;;;;;;5093845;28;20468;-77
2022/10/27 03:35:20;;;;;;;15.10;9.60;;;;;;;;;;5073619;28;20926;-78
2022/10/27 03:37:47;;;;;;;9.83;8.50;;;;;;;;;;5072855;28;20444;-77
2022/10/27 03:40:14;;;;;;;22.77;9.10;;;;;;;;;;5072029;28;20430;-78
2022/10/27 03:42:43;;;;;;;9.77;8.77;;;;;;;;;;5070303;28;20472;-78
2022/10/27 03:45:10;;;;;;;10.70;8.80;;;;;;;;;;5070072;28;20468;-77
2022/10/27 03:47:37;;;;;;;13.70;8.50;;;;;;;;;;5070396;28;20448;-76
2022/10/27 03:50:05;;;;;;;10.60;8.70;;;;;;;;;;5070444;28;20444;-76
2022/10/27 03:52:32;;;;;;;13.33;10.00;;;;;;;;;;5070041;28;20472;-77
2022/10/27 03:54:59;;;;;;;10.53;9.10;;;;;;;;;;5069994;28;20437;-77
2022/10/27 03:57:26;;;;;;;15.97;10.20;;;;;;;;;;5070095;28;20472;-77
2022/10/27 03:59:54;;;;;;;13.50;10.30;;;;;;;;;;5070273;28;20456;-78
2022/10/27 04:02:21;;;;;;;15.83;9.60;;;;;;;;;;5070637;28;20465;-77
2022/10/27 04:04:48;;;;;;;9.60;8.70;;;;;;;;;;5069999;28;20459;-77
2022/10/27 04:07:15;;;;;;;12.33;9.50;;;;;;;;;;5070288;28;20463;-77
2022/10/27 04:09:42;;;;;;;13.87;9.50;;;;;;;;;;5070413;28;20448;-78
2022/10/27 04:12:09;;;;;;;10.67;9.40;;;;;;;;;;5064957;28;20984;-78
2022/10/27 04:14:37;;;;;;;9.80;8.90;;;;;;;;;;5049079;28;20446;-76
2022/10/27 04:17:05;;;;;;;11.90;9.53;;;;;;;;;;5050210;28;20480;-78
2022/10/27 04:19:32;;;;;;;9.60;8.60;;;;;;;;;;5051886;28;20453;-78
2022/10/27 04:21:59;;;;;;;14.10;9.93;;;;;;;;;;5049832;28;20461;-77
2022/10/27 04:24:26;;;;;;;10.50;9.40;;;;;;;;;;5049191;28;20491;-77
2022/10/27 04:26:53;;;;;;;14.17;10.10;;;;;;;;;;5051168;28;20446;-77
2022/10/27 04:29:20;;;;;;;13.30;10.13;;;;;;;;;;5050762;28;20836;-76
2022/10/27 04:31:47;;;;;;;14.80;13.30;;;;;;;;;;5050307;28;20453;-77
2022/10/27 04:34:15;;;;;;;13.20;11.90;;;;;;;;;;5050108;28;20437;-77
2022/10/27 04:36:43;;;;;;;12.87;11.53;;;;;;;;;;5050687;28;20477;-77
2022/10/27 04:39:12;;;;;;;12.13;10.93;;;;;;;;;;5050458;28;20452;-77
2022/10/27 04:41:39;;;;;;;13.10;10.43;;;;;;;;;;5053291;28;20527;-77
2022/10/27 04:44:07;;;;;;;11.23;10.00;;;;;;;;;;5053194;28;20438;-77
2022/10/27 04:46:34;;;;;;;11.77;10.67;;;;;;;;;;5053066;28;20442;-76
2022/10/27 04:49:01;;;;;;;15.10;11.00;;;;;;;;;;5053143;28;20953;-76
2022/10/27 04:51:29;;;;;;;13.53;10.87;;;;;;;;;;5054539;28;20503;-77
2022/10/27 04:53:56;;;;;;;12.10;10.97;;;;;;;;;;5072291;28;20452;-77
2022/10/27 04:56:23;;;;;;;12.27;10.97;;;;;;;;;;5073250;28;20976;-77
2022/10/27 04:58:50;;;;;;;14.20;10.50;;;;;;;;;;5072847;28;20444;-75
2022/10/27 05:01:17;;;;;;;12.30;10.80;;;;;;;;;;5073320;28;20464;-76
2022/10/27 05:03:47;;;;;;;13.70;12.33;;;;;;;;;;5072912;28;20444;-77
2022/10/27 05:06:14;;;;;;;13.77;10.80;;;;;;;;;;5073297;28;20554;-77
2022/10/27 05:08:42;;;;;;;13.60;10.70;;;;;;;;;;5072685;28;20455;-77
2022/10/27 05:11:10;;;;;;;16.17;11.10;;;;;;;;;;5073037;28;20465;-77
2022/10/27 05:13:37;;;;;;;16.83;12.43;;;;;;;;;;5055193;28;20457;-76
2022/10/27 05:16:04;;;;;;;16.10;12.63;;;;;;;;;;5054969;28;20452;-78
2022/10/27 05:18:32;;;;;;;15.13;12.40;;;;;;;;;;5072746;28;20456;-76
2022/10/27 05:20:59;;;;;;;14.63;12.70;;;;;;;;;;5072647;28;20452;-76
2022/10/27 05:23:26;;;;;;;13.20;11.47;;;;;;;;;;5072049;28;20979;-78
2022/10/27 05:25:55;;;;;;;15.73;11.40;;;;;;;;;;5073106;28;20452;-76
2022/10/27 05:28:22;;;;;;;15.40;12.33;;;;;;;;;;5072378;28;20437;-77
2022/10/27 05:30:49;;;;;;;13.07;10.90;;;;;;;;;;5073102;28;20440;-77
2022/10/27 05:33:17;;;;;;;12.20;11.00;;;;;;;;;;5072182;28;20452;-77
2022/10/27 05:35:44;;;;;;;13.77;11.77;;;;;;;;;;5072606;28;20445;-77
2022/10/27 05:38:11;;;;;;;12.07;10.80;;;;;;;;;;5073525;28;20437;-77
2022/10/27 05:40:38;;;;;;;16.33;11.90;;;;;;;;;;5072529;28;20444;-77
2022/10/27 05:43:07;;;;;;;14.70;13.07;;;;;;;;;;5071727;28;21140;-77
2022/10/27 05:45:34;;;;;;;17.67;13.13;;;;;;;;;;5071922;28;21054;-77
2022/10/27 05:48:02;;;;;;;13.70;11.10;;;;;;;;;;5072213;28;21026;-77
2022/10/27 05:50:29;;;;;;;14.87;11.50;;;;;;;;;;5072394;28;20452;-78
2022/10/27 05:52:56;;;;;;;14.90;12.80;;;;;;;;;;5071313;28;20468;-76
2022/10/27 05:55:23;;;;;;;14.93;13.53;;;;;;;;;;5071478;28;20444;-78
2022/10/27 05:57:54;;;;;;;14.23;12.70;;;;;;;;;;5073316;28;20457;-77
2022/10/27 06:00:23;;;;;;;13.17;11.77;;;;;;;;;;5072675;28;20477;-76
2022/10/27 06:02:50;;;;;;;13.97;11.50;;;;;;;;;;5070863;28;20487;-76
2022/10/27 06:05:17;;;;;;;12.83;11.17;;;;;;;;;;5071796;28;20449;-77
2022/10/27 06:07:44;;;;;;;12.00;10.63;;;;;;;;;;5071594;28;20484;-77
2022/10/27 06:10:12;;;;;;;16.37;11.43;;;;;;;;;;5071334;28;20449;-79
2022/10/27 06:12:39;;;;;;;14.27;10.20;;;;;;;;;;5062099;28;20480;-77
2022/10/27 06:15:06;;;;;;;15.30;11.37;;;;;;;;;;5052762;28;21209;-78
2022/10/27 06:17:34;;;;;;;13.30;11.37;;;;;;;;;;5052214;28;20487;-77
2022/10/27 06:20:02;;;;;;;14.90;11.70;;;;;;;;;;5052083;28;20449;-77
2022/10/27 06:22:29;;;;;;;12.70;11.50;;;;;;;;;;5059278;28;20990;-78
2022/10/27 06:24:56;;;;;;;15.40;11.80;;;;;;;;;;5071893;28;20908;-78
2022/10/27 06:27:23;;;;;;;13.00;11.70;;;;;;;;;;5071747;28;20978;-78
2022/10/27 06:29:50;;;;;;;12.53;11.10;;;;;;;;;;5070200;28;20451;-77
2022/10/27 06:32:17;;;;;;;13.33;11.60;;;;;;;;;;5073123;28;20473;-77
2022/10/27 06:34:45;;;;;;;15.50;11.37;;;;;;;;;;5061911;28;20441;-77
2022/10/27 06:37:12;;;;;;;14.03;11.87;;;;;;;;;;5052199;28;20442;-78
2022/10/27 06:39:41;;;;;;;20.47;14.30;;;;;;;;;;5051976;28;20445;-78
2022/10/27 06:42:08;;;;;;;13.43;12.03;;;;;;;;;;5065179;28;20472;-76
2022/10/27 06:44:35;;;;;;;13.53;11.60;;;;;;;;;;5073119;28;20448;-76
2022/10/27 06:47:02;;;;;;;15.87;13.13;;;;;;;;;;5072824;28;20487;-74
2022/10/27 06:49:38;;;;;;;17.90;14.13;;;;;;;;;;5068066;28;20440;-77
2022/10/27 06:52:07;;;;;;;17.43;12.73;;;;;;;;;;5052671;28;20456;-77
2022/10/27 06:54:34;;;;;;;13.80;11.83;;;;;;;;;;5052834;28;20941;-79
2022/10/27 06:57:01;;;;;;;15.80;12.10;;;;;;;;;;5052322;28;20809;-77
2022/10/27 06:59:28;;;;;;;15.87;11.23;;;;;;;;;;5051839;28;20956;-77
2022/10/27 07:01:55;;;;;;;16.80;12.23;;;;;;;;;;5052229;28;20461;-78
2022/10/27 07:04:22;;;;;;;18.50;12.87;;;;;;;;;;5050567;28;20445;-77
2022/10/27 07:06:49;;;;;;;18.27;13.10;;;;;;;;;;5051955;28;21017;-77
2022/10/27 07:09:17;;;;;;;14.57;12.47;;;;;;;;;;5052888;28;20438;-79
2022/10/27 07:11:44;;;;;;;19.13;11.80;;;;;;;;;;5051740;28;20481;-76
2022/10/27 07:14:12;;;;;;;12.77;11.47;;;;;;;;;;5051220;28;20449;-77
2022/10/27 07:16:39;;;;;;;14.63;11.33;;;;;;;;;;5052026;28;20453;-79
2022/10/27 07:19:06;;;;;;;14.07;10.70;;;;;;;;;;5051791;28;20446;-77
2022/10/27 07:21:33;;;;;;;14.27;11.20;;;;;;;;;;5051623;28;20469;-77
2022/10/27 07:24:00;;;;;;;18.33;10.93;;;;;;;;;;5050679;28;20902;-77
2022/10/27 07:26:28;;;;;;;13.93;10.23;;;;;;;;;;5051018;28;20445;-76
2022/10/27 07:28:55;;;;;;;15.53;9.93;;;;;;;;;;5055068;28;20508;-78
2022/10/27 07:31:22;;;;;;;11.07;9.73;;;;;;;;;;5050827;28;20972;-77
2022/10/27 07:33:49;;;;;;;10.97;9.80;;;;;;;;;;5050007;28;20830;-78
2022/10/27 07:36:17;;;;;;;9.83;8.83;;;;;;;;;;5051059;28;20814;-79
2022/10/27 07:38:44;;;;;;;9.87;8.80;;;;;;;;;;5050239;28;20931;-77
2022/10/27 07:41:11;;;;;;;9.30;8.50;;;;;;;;;;5055113;28;20461;-79
2022/10/27 07:43:39;;;;;;;10.00;8.97;;;;;;;;;;5056472;28;20426;-79
2022/10/27 07:46:06;;;;;;;11.97;8.37;;;;;;;;;;5052942;28;20438;-77
2022/10/27 07:48:33;;;;;;;9.70;8.33;;;;;;;;;;5052470;28;21035;-77
2022/10/27 07:51:00;;;;;;;8.23;7.40;;;;;;;;;;5051545;28;20438;-77
2022/10/27 07:53:27;;;;;;;12.70;8.30;;;;;;;;;;5051648;28;20504;-77
2022/10/27 07:55:55;;;;;;;8.50;7.60;;;;;;;;;;5052769;28;20442;-78
2022/10/27 07:58:22;;;;;;;13.47;7.30;;;;;;;;;;5053142;28;20476;-77
2022/10/27 08:00:51;;;;;;;7.93;7.13;;;;;;;;;;5058031;28;20456;-77
2022/10/27 08:03:19;;;;;;;8.33;7.50;;;;;;;;;;5057716;28;20450;-77
2022/10/27 08:05:46;;;;;;;9.13;7.60;;;;;;;;;;5051380;28;20437;-77
2022/10/27 08:08:15;;;;;;;7.20;6.57;;;;;;;;;;5052236;28;20485;-77
2022/10/27 08:10:43;;;;;;;8.47;7.67;;;;;;;;;;5051038;28;20433;-77
2022/10/27 08:13:10;;;;;;;9.07;6.90;;;;;;;;;;5064975;28;20460;-78
2022/10/27 08:15:38;;;;;;;8.30;7.33;;;;;;;;;;5073025;28;20445;-76
2022/10/27 08:18:07;;;;;;;10.60;6.67;;;;;;;;;;5075603;28;20445;-77
2022/10/27 08:20:37;;;;;;;7.93;6.17;;;;;;;;;;5074821;28;20433;-77
2022/10/27 08:23:05;;;;;;;8.40;6.90;;;;;;;;;;5074537;28;20475;-76
2022/10/27 08:25:33;;;;;;;8.00;7.00;;;;;;;;;;5074440;28;20825;-77
2022/10/27 08:28:00;;;;;;;9.17;8.03;;;;;;;;;;5075380;28;20511;-77
2022/10/27 08:30:28;;;;;;;7.90;6.20;;;;;;;;;;5073159;28;20432;-78
2022/10/27 08:32:56;;;;;;;8.67;5.97;;;;;;;;;;5066867;28;20479;-77
2022/10/27 08:35:24;;;;;;;8.00;6.80;;;;;;;;;;5059747;28;20471;-79
2022/10/27 08:37:57;;;;;;;8.23;7.37;;;;;;;;;;5054770;28;20446;-77
2022/10/27 08:40:25;;;;;;;9.30;7.17;;;;;;;;;;5060611;28;21287;-77
2022/10/27 08:43:00;;;;;;;9.73;7.30;;;;;;;;;;5072960;28;20464;-77
2022/10/27 08:45:29;;;;;;;8.30;6.60;;;;;;;;;;5074199;28;20421;-78
2022/10/27 08:47:57;;;;;;;11.43;6.80;;;;;;;;;;5073875;28;20486;-77
2022/10/27 08:50:27;;;;;;;8.27;6.50;;;;;;;;;;5074125;28;20785;-78
2022/10/27 08:52:57;;;;;;;10.40;7.10;;;;;;;;;;5073927;28;20913;-78
2022/10/27 08:55:27;;;;;;;9.50;7.10;;;;;;;;;;5074214;28;20449;-77
2022/10/27 08:57:58;;;;;;;8.17;6.33;;;;;;;;;;5073620;28;21144;-77
2022/10/27 09:00:25;;;;;;;10.23;5.97;;;;;;;;;;5073900;28;20494;-77
2022/10/27 09:02:59;;;;;;;7.37;6.27;;;;;;;;;;5075027;28;20456;-76
2022/10/27 09:05:33;;;;;;;8.37;6.17;;;;;;;;;;5073404;28;20803;-77
2022/10/27 09:08:05;;;;;;;6.93;5.53;;;;;;;;;;5073483;28;20986;-78
2022/10/27 09:10:43;;;;;;;8.60;5.93;;;;;;;;;;5073763;28;20935;-77
2022/10/27 09:13:20;;;;;;;6.93;6.23;;;;;;;;;;5059476;28;20465;-77
2022/10/27 09:15:48;;;;;;;6.23;5.70;;;;;;;;;;5053509;28;20833;-77
2022/10/27 09:18:18;;;;;;;7.10;5.47;;;;;;;;;;5052641;28;20444;-78
2022/10/27 09:20:47;;;;;;;8.20;6.23;;;;;;;;;;5053152;28;20928;-77
2022/10/27 09:23:16;;;;;;;5.90;5.27;;;;;;;;;;5052180;28;20442;-77
2022/10/27 09:25:44;;;;;;;6.50;5.60;;;;;;;;;;5052120;28;20484;-77
2022/10/27 09:28:16;;;;;;;6.47;5.50;;;;;;;;;;5053039;28;20481;-78
2022/10/27 09:30:44;;;;;;;6.53;5.63;;;;;;;;;;5052742;28;20453;-78
2022/10/27 09:33:14;;;;;;;13.33;6.67;;;;;;;;;;5053084;28;20933;-80
2022/10/27 09:35:42;;;;;;;6.90;5.77;;;;;;;;;;5052593;28;20909;-78
2022/10/27 09:38:12;;;;;;;10.33;6.20;;;;;;;;;;5054274;28;20953;-78
2022/10/27 09:40:39;;;;;;;6.97;5.70;;;;;;;;;;5054104;28;20449;-78
2022/10/27 09:43:06;;;;;;;11.23;5.70;;;;;;;;;;5051982;28;20477;-77
2022/10/27 09:45:33;;;;;;;8.63;6.03;;;;;;;;;;5052353;28;20452;-77
2022/10/27 09:48:04;;;;;;;7.20;6.30;;;;;;;;;;5052674;28;20513;-78
2022/10/27 09:50:35;;;;;;;10.43;5.93;;;;;;;;;;5053631;28;20941;-79
2022/10/27 09:53:02;;;;;;;8.63;5.47;;;;;;;;;;5052300;28;20493;-77
2022/10/27 09:55:47;;;;;;;9.60;4.87;;;;;;;;;;5053371;28;20449;-76
2022/10/27 09:58:14;;;;;;;10.63;5.63;;;;;;;;;;5053988;28;20442;-77
2022/10/27 10:00:42;;;;;;;10.57;5.97;;;;;;;;;;5052622;28;20450;-77
2022/10/27 10:03:18;;;;;;;9.70;6.33;;;;;;;;;;5052126;28;20461;-77
2022/10/27 10:05:46;;;;;;;9.80;5.77;;;;;;;;;;5053355;28;20468;-79
2022/10/27 10:08:15;;;;;;;14.10;7.23;;;;;;;;;;5053067;28;20481;-77
2022/10/27 10:10:53;;;;;;;11.07;5.73;;;;;;;;;;5053185;28;20525;-77
2022/10/27 10:13:21;;;;;;;6.07;5.50;;;;;;;;;;5051570;28;20827;-78
2022/10/27 10:15:48;;;;;;;10.83;6.00;;;;;;;;;;5053005;28;20495;-78
2022/10/27 10:18:24;;;;;;;12.57;7.03;;;;;;;;;;5052283;28;20429;-77
2022/10/27 10:20:56;;;;;;;11.50;6.70;;;;;;;;;;5053415;28;20822;-78
2022/10/27 10:23:25;;;;;;;10.67;6.33;;;;;;;;;;5052649;28;20966;-79
2022/10/27 10:25:54;;;;;;;8.73;6.77;;;;;;;;;;5053303;28;20452;-76
2022/10/27 10:28:27;;;;;;;9.73;6.93;;;;;;;;;;5070774;28;20468;-78
2022/10/27 10:30:55;;;;;;;9.50;6.67;;;;;;;;;;5072647;28;20856;-77
2022/10/27 10:33:23;;;;;;;9.43;6.67;;;;;;;;;;5072977;28;20491;-78
2022/10/27 10:35:51;;;;;;;9.20;5.57;;;;;;;;;;5074023;28;20448;-78
2022/10/27 10:38:33;;;;;;;10.60;5.13;;;;;;;;;;5072347;28;20852;-78
2022/10/27 10:41:03;;;;;;;9.43;5.63;;;;;;;;;;5073928;28;20947;-78
2022/10/27 10:43:30;;;;;;;15.20;5.80;;;;;;;;;;5072286;28;20471;-79
2022/10/27 10:45:58;;;;;;;5.07;4.57;;;;;;;;;;5071810;28;20435;-77
2022/10/27 10:48:46;;;;;;;10.87;4.63;;;;;;;;;;5073260;28;20479;-77
2022/10/27 10:51:14;;;;;;;9.70;5.30;;;;;;;;;;5072260;28;21150;-78
2022/10/27 10:53:43;;;;;;;9.27;5.10;;;;;;;;;;5079769;28;20432;-76
2022/10/27 10:56:25;;;;;;;5.70;4.93;;;;;;;;;;5095302;28;20425;-76
2022/10/27 10:58:56;;;;;;;6.43;4.90;;;;;;;;;;5095220;28;20488;-76
2022/10/27 11:01:23;;;;;;;7.50;4.87;;;;;;;;;;5090665;28;20453;-79
2022/10/27 11:03:52;;;;;;;7.43;5.37;;;;;;;;;;5073155;28;20444;-77
2022/10/27 11:06:20;;;;;;;9.10;6.00;;;;;;;;;;5065126;28;20438;-79
2022/10/27 11:08:55;;;;;;;8.90;5.63;;;;;;;;;;5083472;28;20476;-76
2022/10/27 11:11:22;;;;;;;7.90;4.80;;;;;;;;;;5085134;28;20453;-77
2022/10/27 11:13:53;;;;;;;8.80;4.80;;;;;;;;;;5070280;28;20447;-77
2022/10/27 11:16:20;;;;;;;6.60;5.20;;;;;;;;;;5070329;28;20446;-76
2022/10/27 11:18:50;;;;;;;8.73;4.87;;;;;;;;;;5073771;28;20491;-77
2022/10/27 11:21:27;;;;;;;11.60;5.40;;;;;;;;;;5083435;28;20464;-78
2022/10/27 11:23:55;;;;;;;11.90;9.27;;;;;;;;;;5074104;28;20441;-79
2022/10/27 11:26:23;;;;;;;8.43;6.90;;;;;;;;;;5075021;28;20449;-78
2022/10/27 11:28:55;;;;;;;9.00;5.03;;;;;;;;;;5073128;28;20487;-78
2022/10/27 11:31:24;;;;;;;9.53;5.60;;;;;;;;;;5074112;28;20869;-78
2022/10/27 11:33:55;;;;;;;7.27;5.40;;;;;;;;;;5073905;28;20460;-79
2022/10/27 11:36:25;;;;;;;8.83;5.03;;;;;;;;;;5075578;28;20440;-79
2022/10/27 11:38:57;;;;;;;7.57;5.13;;;;;;;;;;5075246;28;20436;-79
2022/10/27 11:41:27;;;;;;;7.20;5.07;;;;;;;;;;5075283;28;20460;-78
2022/10/27 11:44:00;;;;;;;8.83;5.90;;;;;;;;;;5073761;28;20459;-78
2022/10/27 11:46:30;;;;;;;13.67;5.30;;;;;;;;;;5072546;28;20523;-79
2022/10/27 11:48:58;;;;;;;7.00;4.30;;;;;;;;;;5072857;28;20483;-77
2022/10/27 11:51:30;;;;;;;7.40;4.17;;;;;;;;;;5076037;28;20471;-77
2022/10/27 11:53:57;;;;;;;5.90;3.63;;;;;;;;;;5073087;28;20451;-77
2022/10/27 11:56:29;;;;;;;7.70;3.63;;;;;;;;;;5075911;28;20437;-77
2022/10/27 11:59:04;;;;;;;8.70;3.50;;;;;;;;;;5075304;28;20451;-77
2022/10/27 12:01:39;;;;;;;7.40;3.20;;;;;;;;;;5077777;28;20459;-78
2022/10/27 12:04:14;;;;;;;5.57;3.20;;;;;;;;;;5074919;28;20452;-77
2022/10/27 12:06:46;;;;;;;3.73;2.60;;;;;;;;;;5074872;28;20447;-77
2022/10/27 12:09:17;;;;;;;5.83;3.30;;;;;;;;;;5076227;28;20472;-77
2022/10/27 12:11:49;;;;;;;4.23;3.20;;;;;;;;;;5074745;28;20475;-77
2022/10/27 12:14:21;;;;;;;3.90;3.17;;;;;;;;;;5074286;28;20420;-78
2022/10/27 12:16:51;;;;;;;7.47;3.20;;;;;;;;;;5075799;28;20444;-76
2022/10/27 12:19:19;;;;;;;6.10;3.30;;;;;;;;;;5074459;28;20448;-78
2022/10/27 12:21:48;;;;;;;6.53;2.70;;;;;;;;;;5074298;28;20972;-77
2022/10/27 12:24:17;;;;;;;7.33;2.77;;;;;;;;;;5072992;28;20952;-77
2022/10/27 12:26:46;;;;;;;5.00;2.53;;;;;;;;;;5076593;28;20444;-77
2022/10/27 12:29:14;;;;;;;5.03;2.53;;;;;;;;;;5073742;28;20487;-76
2022/10/27 12:31:45;;;;;;;6.17;3.43;;;;;;;;;;5074520;28;20835;-76
2022/10/27 12:34:15;;;;;;;7.20;2.60;;;;;;;;;;5073392;28;20449;-77
2022/10/27 12:36:45;;;;;;;5.63;2.77;;;;;;;;;;5077342;28;20451;-78
2022/10/27 12:39:17;;;;;;;3.90;2.90;;;;;;;;;;5080873;28;20943;-77
2022/10/27 12:41:46;;;;;;;7.10;3.60;;;;;;;;;;5085907;28;20483;-77
2022/10/27 12:44:18;;;;;;;9.10;4.03;;;;;;;;;;5079453;28;21113;-77
2022/10/27 12:46:53;;;;;;;11.53;4.43;;;;;;;;;;5073425;28;20451;-77
2022/10/27 12:49:23;;;;;;;6.30;3.80;;;;;;;;;;5075270;28;20483;-78
2022/10/27 12:51:53;;;;;;;7.93;2.90;;;;;;;;;;5074619;28;20475;-77
2022/10/27 12:54:28;;;;;;;10.13;3.70;;;;;;;;;;5073228;28;20443;-78
2022/10/27 12:56:58;;;;;;;8.77;4.03;;;;;;;;;;5074590;28;20891;-78
2022/10/27 12:59:31;;;;;;;5.43;3.37;;;;;;;;;;5074613;28;20443;-77
2022/10/27 13:02:00;;;;;;;5.80;2.80;;;;;;;;;;5073936;28;20522;-77
2022/10/27 13:04:33;;;;;;;7.00;3.20;;;;;;;;;;5075093;28;20424;-77
2022/10/27 13:07:09;;;;;;;5.37;2.60;;;;;;;;;;5074216;28;20437;-78
2022/10/27 13:09:53;;;;;;;5.43;2.90;;;;;;;;;;5074218;28;20479;-77
2022/10/27 13:12:36;;;;;;;4.90;2.73;;;;;;;;;;5055577;28;20462;-77
2022/10/27 13:15:12;;;;;;;5.07;2.97;;;;;;;;;;5051619;28;20980;-77
2022/10/27 13:17:45;;;;;;;6.77;3.73;;;;;;;;;;5051599;28;20441;-77
2022/10/27 13:20:17;;;;;;;6.00;2.93;;;;;;;;;;5051472;28;20434;-76
2022/10/27 13:22:45;;;;;;;7.07;2.97;;;;;;;;;;5050957;28;20466;-77
2022/10/27 13:25:16;;;;;;;6.97;2.87;;;;;;;;;;5051647;28;20449;-76
2022/10/27 13:27:48;;;;;;;5.17;2.77;;;;;;;;;;5051540;28;20442;-77
2022/10/27 13:30:17;;;;;;;5.13;2.33;;;;;;;;;;5052176;28;20485;-77
2022/10/27 13:32:53;;;;;;;8.47;3.00;;;;;;;;;;5051536;28;20484;-76
2022/10/27 13:35:28;;;;;;;7.43;3.47;;;;;;;;;;5051042;28;20437;-77
2022/10/27 13:38:14;;;;;;;14.90;12.00;;;;;;;;;;5051517;28;20793;-76
2022/10/27 13:40:41;;;;;;;14.07;8.20;;;;;;;;;;5051283;28;21019;-77
2022/10/27 13:43:35;;;;;;;6.33;3.73;;;;;;;;;;5051185;28;20465;-77
2022/10/27 13:46:03;;;;;;;6.30;3.67;;;;;;;;;;5026332;28;20445;-77
2022/10/27 13:48:34;;;;;;;6.83;3.43;;;;;;;;;;5051344;28;20446;-77
2022/10/27 13:51:21;;;;;;;5.20;3.40;;;;;;;;;;5052307;28;20482;-77
2022/10/27 13:53:48;;;;;;;8.90;3.37;;;;;;;;;;5050933;28;20967;-77
2022/10/27 13:56:30;;;;;;;6.57;3.33;;;;;;;;;;5051590;28;20445;-77
2022/10/27 13:59:01;;;;;;;8.13;4.60;;;;;;;;;;5049963;28;20817;-77
2022/10/27 14:01:31;;;;;;;5.70;3.63;;;;;;;;;;5067412;28;20457;-75
2022/10/27 14:04:04;;;;;;;7.30;3.53;;;;;;;;;;5073999;28;20433;-76
2022/10/27 14:06:32;;;;;;;9.20;3.63;;;;;;;;;;5073801;28;20433;-75
2022/10/27 14:09:01;;;;;;;7.20;3.47;;;;;;;;;;5062827;28;20437;-77
2022/10/27 14:11:30;;;;;;;6.77;3.30;;;;;;;;;;5051836;28;20473;-77
2022/10/27 14:14:00;;;;;;;9.50;3.10;;;;;;;;;;5069095;28;20956;-75
2022/10/27 14:16:28;;;;;;;6.83;3.43;;;;;;;;;;5071009;28;20648;-77
2022/10/27 14:19:04;;;;;;;13.67;3.20;;;;;;;;;;5070758;28;20449;-77
2022/10/27 14:21:31;;;;;;;11.40;4.03;;;;;;;;;;5070282;28;20464;-76
2022/10/27 14:24:03;;;;;;;13.73;4.43;;;;;;;;;;5069278;28;20447;-77
2022/10/27 14:26:31;;;;;;;9.87;3.83;;;;;;;;;;5071026;28;20448;-77
2022/10/27 14:28:59;;;;;;;4.53;3.40;;;;;;;;;;5070601;28;20460;-77
2022/10/27 14:31:26;;;;;;;7.70;4.03;;;;;;;;;;5071105;28;20845;-77
2022/10/27 14:33:54;;;;;;;9.73;3.50;;;;;;;;;;5070698;28;20449;-78
2022/10/27 14:36:25;;;;;;;7.50;4.00;;;;;;;;;;5069443;28;20445;-77
2022/10/27 14:38:54;;;;;;;6.50;3.73;;;;;;;;;;5070076;28;20845;-77
2022/10/27 14:41:23;;;;;;;5.30;3.47;;;;;;;;;;5069918;28;20475;-78
2022/10/27 14:43:52;;;;;;;6.00;3.70;;;;;;;;;;5069727;28;20459;-76
2022/10/27 14:46:20;;;;;;;6.90;3.67;;;;;;;;;;5071373;28;20440;-76